Time;durP1;ratioP1;P1;durP2;ratioP2;P2;SDS_P1;SDS_P2;PMS_P1;PMS_P2;Temp;Humidity;BMP_temperature;BMP_pressure;BME280_temperature;BME280_humidity;BME280_pressure;Samples;Min_cycle;Max_cycle;Signal;HPM_P1;HPM_P2
2021/06/17 00:00:10;;;;;;;16.90;6.40;;;16.90;99.90;;;;;;5092248;28;20044;-78
2021/06/17 00:02:36;;;;;;;13.95;5.43;;;16.90;99.90;;;;;;5092253;28;20393;-78
2021/06/17 00:05:03;;;;;;;9.23;4.30;;;16.90;99.90;;;;;;5091995;28;20112;-78
2021/06/17 00:07:28;;;;;;;13.52;5.50;;;16.90;99.90;;;;;;5074522;28;20286;-78
2021/06/17 00:09:54;;;;;;;13.75;5.22;;;16.80;99.90;;;;;;5070528;28;20029;-78
2021/06/17 00:12:19;;;;;;;7.55;4.20;;;16.80;99.90;;;;;;5070719;28;20029;-78
2021/06/17 00:14:45;;;;;;;13.90;4.88;;;16.80;99.90;;;;;;5071182;28;20048;-78
2021/06/17 00:17:11;;;;;;;11.27;4.82;;;16.80;99.90;;;;;;5083620;28;20663;-78
2021/06/17 00:19:36;;;;;;;13.25;4.93;;;16.80;99.90;;;;;;5090662;28;20052;-78
2021/06/17 00:22:03;;;;;;;11.95;5.22;;;16.80;99.90;;;;;;5091889;28;20357;-78
2021/06/17 00:24:29;;;;;;;13.23;4.35;;;16.80;99.90;;;;;;5090552;28;20034;-78
2021/06/17 00:26:54;;;;;;;11.48;5.50;;;16.90;99.90;;;;;;5090105;28;20024;-78
2021/06/17 00:29:20;;;;;;;9.85;4.90;;;16.90;99.90;;;;;;5091878;28;20089;-78
2021/06/17 00:31:47;;;;;;;8.55;4.05;;;17.00;99.90;;;;;;5091810;28;20466;-78
2021/06/17 00:34:12;;;;;;;8.88;4.68;;;17.00;99.90;;;;;;5091636;28;20521;-78
2021/06/17 00:36:39;;;;;;;10.65;4.95;;;17.00;99.90;;;;;;5090093;28;20036;-78
2021/06/17 00:39:07;;;;;;;12.38;4.78;;;17.00;99.90;;;;;;5071870;28;20021;-78
2021/06/17 00:41:35;;;;;;;7.68;4.50;;;17.00;99.90;;;;;;5071523;28;20029;-78
2021/06/17 00:44:01;;;;;;;12.50;4.75;;;17.10;99.90;;;;;;5070197;28;20048;-78
2021/06/17 00:46:26;;;;;;;14.40;5.13;;;17.00;99.90;;;;;;5071704;28;20056;-78
2021/06/17 00:48:52;;;;;;;9.02;4.82;;;16.90;99.90;;;;;;5087346;28;20024;-78
2021/06/17 00:51:18;;;;;;;14.02;5.72;;;16.90;99.90;;;;;;5091711;28;20114;-78
2021/06/17 00:53:43;;;;;;;9.70;4.93;;;16.90;99.90;;;;;;5090309;28;20024;-78
2021/06/17 00:56:09;;;;;;;12.25;4.88;;;16.80;99.90;;;;;;5091726;28;20166;-78
2021/06/17 00:58:35;;;;;;;10.27;4.78;;;16.80;99.90;;;;;;5079293;28;20546;-78
2021/06/17 01:01:01;;;;;;;11.93;5.32;;;16.80;99.90;;;;;;5071406;28;20029;-78
2021/06/17 01:03:26;;;;;;;18.63;5.50;;;16.70;99.90;;;;;;5070006;28;20021;-77
2021/06/17 01:05:53;;;;;;;10.55;5.30;;;16.60;99.90;;;;;;5069893;28;20489;-77
2021/06/17 01:08:56;;;;;;;8.30;5.07;;;16.50;99.90;;;;;;5076767;28;20089;-77
2021/06/17 01:11:42;;;;;;;7.82;4.60;;;16.50;99.90;;;;;;5091435;28;20480;-78
2021/06/17 01:14:21;;;;;;;9.05;4.20;;;16.50;99.90;;;;;;5090099;28;20446;-78
2021/06/17 01:16:53;;;;;;;8.88;4.85;;;16.40;99.90;;;;;;5091560;28;20442;-78
2021/06/17 01:19:31;;;;;;;21.08;5.80;;;16.40;99.90;;;;;;5088090;28;20067;-78
2021/06/17 01:22:07;;;;;;;12.70;5.03;;;16.30;99.90;;;;;;5090092;28;20041;-77
2021/06/17 01:24:43;;;;;;;8.90;5.15;;;16.30;99.90;;;;;;5091274;28;20047;-78
2021/06/17 01:27:26;;;;;;;15.10;5.38;;;16.30;99.90;;;;;;5093073;28;20031;-78
2021/06/17 01:29:58;;;;;;;17.38;6.57;;;16.20;99.90;;;;;;5080833;28;20572;-78
2021/06/17 01:32:25;;;;;;;8.82;5.03;;;16.20;99.90;;;;;;5074850;28;20081;-78
2021/06/17 01:34:52;;;;;;;11.32;4.97;;;16.10;99.90;;;;;;5074520;28;20071;-78
2021/06/17 01:37:21;;;;;;;13.20;5.90;;;16.10;99.90;;;;;;5073577;28;20400;-78
2021/06/17 01:39:49;;;;;;;11.07;5.40;;;16.10;99.90;;;;;;5084857;28;20096;-78
2021/06/17 01:42:15;;;;;;;9.88;6.20;;;16.10;99.90;;;;;;5094771;28;20016;-78
2021/06/17 01:44:42;;;;;;;7.90;5.38;;;16.10;99.90;;;;;;5092996;28;20031;-77
2021/06/17 01:47:09;;;;;;;11.98;5.32;;;16.00;99.90;;;;;;5094779;28;20027;-77
2021/06/17 01:49:37;;;;;;;8.15;6.20;;;16.00;99.90;;;;;;5087628;28;20021;-77
2021/06/17 01:52:04;;;;;;;10.43;5.53;;;16.10;99.90;;;;;;5074497;28;20024;-77
2021/06/17 01:54:31;;;;;;;8.43;6.30;;;16.00;99.90;;;;;;5074280;28;20025;-77
2021/06/17 01:56:59;;;;;;;8.73;5.47;;;15.90;99.90;;;;;;5073094;28;20035;-77
2021/06/17 01:59:27;;;;;;;9.95;5.72;;;16.00;99.90;;;;;;5075679;28;20477;-77
2021/06/17 02:01:57;;;;;;;13.93;8.02;;;15.90;99.90;;;;;;5094307;28;20043;-77
2021/06/17 02:04:24;;;;;;;12.35;7.18;;;15.90;99.90;;;;;;5076357;28;20103;-77
2021/06/17 02:06:50;;;;;;;10.82;6.38;;;15.90;99.90;;;;;;5074225;28;20024;-78
2021/06/17 02:09:17;;;;;;;12.80;6.47;;;15.90;99.90;;;;;;5072950;28;20021;-77
2021/06/17 02:11:43;;;;;;;8.25;6.22;;;15.90;99.90;;;;;;5090258;28;20043;-78
2021/06/17 02:14:13;;;;;;;16.55;6.78;;;16.00;99.90;;;;;;5092763;28;20399;-77
2021/06/17 02:16:42;;;;;;;9.48;7.50;;;16.00;99.90;;;;;;5094177;28;20027;-78
2021/06/17 02:19:11;;;;;;;8.95;5.72;;;16.00;99.90;;;;;;5094112;28;20020;-78
2021/06/17 02:21:38;;;;;;;12.70;6.78;;;16.10;99.90;;;;;;5092496;28;20031;-77
2021/06/17 02:24:07;;;;;;;8.48;5.75;;;16.00;99.90;;;;;;5093989;28;20020;-78
2021/06/17 02:26:33;;;;;;;9.52;6.05;;;16.00;99.90;;;;;;5094027;28;20057;-77
2021/06/17 02:29:02;;;;;;;12.90;7.43;;;16.10;99.90;;;;;;5093939;28;20067;-77
2021/06/17 02:31:33;;;;;;;16.58;7.07;;;16.00;99.90;;;;;;5082574;28;20023;-78
2021/06/17 02:33:59;;;;;;;10.73;5.90;;;16.00;99.90;;;;;;5078660;28;20028;-77
2021/06/17 02:36:26;;;;;;;12.20;7.50;;;16.00;99.90;;;;;;5092686;28;20116;-78
2021/06/17 02:38:56;;;;;;;10.50;6.28;;;16.00;99.90;;;;;;5073315;28;20032;-77
2021/06/17 02:41:22;;;;;;;9.45;6.53;;;16.00;99.90;;;;;;5072204;28;20028;-77
2021/06/17 02:43:56;;;;;;;12.95;7.20;;;15.90;99.90;;;;;;5072192;28;20115;-77
2021/06/17 02:46:22;;;;;;;8.90;6.75;;;15.90;99.90;;;;;;5072898;28;20056;-78
2021/06/17 02:48:50;;;;;;;6.90;6.05;;;15.80;99.90;;;;;;5072206;28;20036;-77
2021/06/17 02:51:16;;;;;;;11.23;6.55;;;15.80;99.90;;;;;;5075380;28;20021;-77
2021/06/17 02:53:41;;;;;;;10.38;6.50;;;15.80;99.90;;;;;;5093403;28;20046;-77
2021/06/17 02:56:12;;;;;;;10.98;7.28;;;15.80;99.90;;;;;;5093401;28;20032;-77
2021/06/17 02:58:56;;;;;;;14.45;7.45;;;15.80;99.90;;;;;;5093780;28;20061;-77
2021/06/17 03:01:47;;;;;;;7.50;6.30;;;15.80;99.90;;;;;;5091694;28;20525;-77
2021/06/17 03:04:22;;;;;;;18.92;8.25;;;15.80;99.90;;;;;;5071614;28;20059;-77
2021/06/17 03:06:51;;;;;;;13.77;6.57;;;15.80;99.90;;;;;;5073082;28;20094;-77
2021/06/17 03:09:25;;;;;;;13.63;7.40;;;15.80;99.90;;;;;;5073143;28;20104;-78
2021/06/17 03:11:55;;;;;;;11.85;6.70;;;15.90;99.90;;;;;;5072859;28;20031;-77
2021/06/17 03:14:26;;;;;;;11.02;7.22;;;15.90;99.90;;;;;;5071451;28;20029;-77
2021/06/17 03:16:56;;;;;;;12.85;7.10;;;15.90;99.90;;;;;;5072864;28;20029;-77
2021/06/17 03:19:24;;;;;;;12.43;7.43;;;15.90;99.90;;;;;;5071686;28;20028;-77
2021/06/17 03:21:56;;;;;;;9.73;7.25;;;15.90;99.90;;;;;;5090092;28;20369;-77
2021/06/17 03:24:26;;;;;;;10.02;7.32;;;16.00;99.90;;;;;;5092822;28;20030;-78
2021/06/17 03:26:54;;;;;;;10.82;7.30;;;16.00;99.90;;;;;;5093002;28;20198;-78
2021/06/17 03:29:23;;;;;;;16.15;8.23;;;16.00;99.90;;;;;;5092819;28;20557;-78
2021/06/17 03:31:49;;;;;;;13.50;7.38;;;16.10;99.90;;;;;;5076692;28;20100;-77
2021/06/17 03:34:15;;;;;;;10.43;7.13;;;16.20;99.90;;;;;;5071202;28;20146;-78
2021/06/17 03:36:43;;;;;;;12.07;7.78;;;16.20;99.90;;;;;;5072558;28;20025;-78
2021/06/17 03:39:08;;;;;;;9.63;6.55;;;16.40;99.90;;;;;;5072443;28;20021;-77
2021/06/17 03:41:35;;;;;;;16.08;7.20;;;16.70;99.90;;;;;;5082892;28;20046;-78
2021/06/17 03:44:02;;;;;;;9.30;6.60;;;16.80;99.90;;;;;;5092325;28;20020;-77
2021/06/17 03:46:29;;;;;;;13.90;5.63;;;17.00;99.90;;;;;;5091278;28;20024;-77
2021/06/17 03:48:56;;;;;;;12.80;6.65;;;17.20;99.90;;;;;;5092149;28;20021;-78
2021/06/17 03:51:22;;;;;;;12.70;6.72;;;17.40;99.90;;;;;;5084323;28;20017;-77
2021/06/17 03:53:48;;;;;;;8.25;5.65;;;17.60;99.90;;;;;;5070659;28;20025;-78
2021/06/17 03:56:16;;;;;;;10.63;6.30;;;17.60;99.90;;;;;;5070805;28;20074;-78
2021/06/17 03:58:43;;;;;;;9.52;6.55;;;17.70;99.90;;;;;;5072187;28;20485;-78
2021/06/17 04:01:10;;;;;;;11.43;6.25;;;17.70;99.90;;;;;;5071973;28;20070;-77
2021/06/17 04:03:37;;;;;;;9.40;5.65;;;17.60;99.90;;;;;;5072850;28;20500;-77
2021/06/17 04:06:04;;;;;;;12.00;6.07;;;17.70;99.90;;;;;;5071813;28;20480;-77
2021/06/17 04:08:35;;;;;;;19.52;6.53;;;17.80;99.90;;;;;;5071366;28;20123;-77
2021/06/17 04:11:03;;;;;;;11.80;6.57;;;17.80;99.90;;;;;;5071087;28;20117;-78
2021/06/17 04:13:32;;;;;;;11.38;5.32;;;17.90;99.90;;;;;;5088483;28;20032;-77
2021/06/17 04:15:59;;;;;;;13.68;7.25;;;18.00;99.90;;;;;;5091996;28;20403;-77
2021/06/17 04:18:26;;;;;;;15.63;5.55;;;18.10;99.90;;;;;;5092801;28;20020;-77
2021/06/17 04:20:54;;;;;;;19.98;6.32;;;18.10;99.90;;;;;;5090822;28;20035;-77
2021/06/17 04:23:22;;;;;;;10.43;5.65;;;18.20;99.90;;;;;;5077758;28;20028;-78
2021/06/17 04:25:49;;;;;;;12.77;5.05;;;18.30;99.90;;;;;;5072285;28;20029;-77
2021/06/17 04:28:15;;;;;;;10.95;5.43;;;18.40;99.90;;;;;;5071796;28;20025;-78
2021/06/17 04:30:42;;;;;;;14.73;5.05;;;18.50;99.90;;;;;;5071671;28;20025;-77
2021/06/17 04:33:11;;;;;;;12.10;5.53;;;18.60;99.90;;;;;;5079473;28;20395;-78
2021/06/17 04:35:41;;;;;;;10.52;5.72;;;18.60;99.90;;;;;;5091210;28;20055;-77
2021/06/17 04:38:10;;;;;;;11.77;5.28;;;18.70;99.90;;;;;;5090438;28;20031;-78
2021/06/17 04:40:37;;;;;;;8.35;4.80;;;18.80;99.90;;;;;;5090611;28;20054;-77
2021/06/17 04:43:03;;;;;;;10.40;4.80;;;18.80;99.90;;;;;;5086732;28;20025;-77
2021/06/17 04:45:29;;;;;;;7.70;4.80;;;19.00;99.90;;;;;;5070498;28;20047;-78
2021/06/17 04:48:00;;;;;;;9.38;5.47;;;19.00;99.90;;;;;;5070373;28;20024;-77
2021/06/17 04:50:26;;;;;;;8.50;5.20;;;19.00;99.90;;;;;;5071555;28;20529;-77
2021/06/17 04:52:58;;;;;;;12.45;5.22;;;19.00;99.90;;;;;;5072524;28;20029;-77
2021/06/17 04:55:24;;;;;;;14.40;5.07;;;19.20;99.90;;;;;;5091532;28;20429;-78
2021/06/17 04:57:49;;;;;;;9.25;5.05;;;19.40;99.90;;;;;;5090453;28;20173;-78
2021/06/17 05:00:15;;;;;;;11.35;5.65;;;19.50;99.90;;;;;;5091634;28;20107;-77
2021/06/17 05:02:41;;;;;;;8.00;4.90;;;19.50;99.90;;;;;;5095511;28;20114;-77
2021/06/17 05:05:08;;;;;;;11.15;6.13;;;19.60;99.90;;;;;;5079485;28;20116;-77
2021/06/17 05:12:46;;;;;;;12.65;5.85;;;20.00;99.90;;;;;;5095899;28;20051;-78
2021/06/17 05:15:12;;;;;;;18.20;5.95;;;20.20;99.90;;;;;;5094934;28;20487;-78
2021/06/17 05:17:37;;;;;;;11.18;5.50;;;20.30;99.90;;;;;;5075768;28;20033;-77
2021/06/17 05:20:05;;;;;;;11.15;5.65;;;20.30;99.90;;;;;;5075879;28;20039;-77
2021/06/17 05:22:31;;;;;;;10.32;5.55;;;20.50;99.90;;;;;;5074994;28;20028;-78
2021/06/17 05:24:56;;;;;;;10.05;5.20;;;20.60;99.90;;;;;;5074352;28;20186;-78
2021/06/17 05:27:22;;;;;;;9.77;5.03;;;20.70;99.90;;;;;;5088974;28;20028;-78
2021/06/17 05:29:48;;;;;;;9.57;5.80;;;20.90;99.90;;;;;;5093876;28;20047;-77
2021/06/17 05:32:15;;;;;;;8.50;5.40;;;20.90;99.90;;;;;;5095150;28;20472;-77
2021/06/17 05:34:41;;;;;;;7.38;4.80;;;21.00;99.90;;;;;;5094978;28;20484;-77
2021/06/17 05:37:07;;;;;;;9.50;4.90;;;21.30;99.90;;;;;;5085675;28;20040;-77
2021/06/17 05:39:32;;;;;;;7.47;5.57;;;21.60;99.90;;;;;;5075443;28;20531;-77
2021/06/17 05:41:58;;;;;;;11.38;5.75;;;21.70;99.90;;;;;;5074665;28;20090;-77
2021/06/17 05:44:23;;;;;;;11.50;5.68;;;22.00;99.90;;;;;;5074684;28;20384;-77
2021/06/17 05:46:49;;;;;;;7.93;5.60;;;22.00;99.90;;;;;;5080128;28;20069;-77
2021/06/17 05:49:14;;;;;;;9.43;5.43;;;22.20;99.90;;;;;;5096459;28;20384;-77
2021/06/17 05:51:40;;;;;;;10.60;4.95;;;21.90;99.90;;;;;;5095557;28;20027;-77
2021/06/17 05:54:06;;;;;;;9.98;5.05;;;21.80;99.90;;;;;;5094574;28;20468;-77
2021/06/17 05:56:31;;;;;;;8.57;5.22;;;21.70;99.90;;;;;;5094913;28;20024;-76
2021/06/17 05:58:57;;;;;;;9.88;4.85;;;21.70;99.90;;;;;;5093322;28;20480;-77
2021/06/17 06:01:23;;;;;;;18.13;5.85;;;21.60;99.90;;;;;;5091970;28;20158;-76
2021/06/17 06:03:48;;;;;;;12.75;5.70;;;21.60;99.90;;;;;;5095433;28;20032;-77
2021/06/17 06:06:14;;;;;;;15.65;6.53;;;21.60;99.90;;;;;;5093944;28;20021;-77
2021/06/17 06:08:40;;;;;;;14.18;6.68;;;21.80;99.90;;;;;;5078919;28;20508;-77
2021/06/17 06:11:05;;;;;;;12.18;5.55;;;22.10;99.90;;;;;;5074692;28;20032;-77
2021/06/17 06:13:32;;;;;;;14.00;6.32;;;22.40;99.90;;;;;;5074537;28;20032;-77
2021/06/17 06:15:58;;;;;;;10.85;5.05;;;22.80;99.90;;;;;;5075530;28;20016;-77
2021/06/17 06:18:27;;;;;;;8.52;5.45;;;23.10;99.90;;;;;;5075189;28;20038;-76
2021/06/17 06:20:57;;;;;;;11.50;6.43;;;23.30;99.90;;;;;;5074264;28;20503;-77
2021/06/17 06:23:23;;;;;;;13.88;6.03;;;23.30;99.90;;;;;;5074676;28;20039;-77
2021/06/17 06:25:49;;;;;;;13.55;5.85;;;23.30;99.90;;;;;;5074445;28;20084;-77
2021/06/17 06:28:15;;;;;;;16.42;6.70;;;23.20;99.90;;;;;;5077693;28;20099;-77
2021/06/17 06:30:41;;;;;;;9.60;6.20;;;22.90;99.90;;;;;;5094471;28;20487;-76
2021/06/17 06:33:07;;;;;;;16.05;5.97;;;23.20;99.90;;;;;;5089506;28;20032;-77
2021/06/17 06:35:32;;;;;;;18.33;6.30;;;23.50;99.90;;;;;;5074072;28;20024;-76
2021/06/17 06:37:58;;;;;;;17.98;6.20;;;23.50;99.90;;;;;;5088258;28;20035;-76
2021/06/17 06:40:25;;;;;;;10.73;5.95;;;23.60;99.90;;;;;;5081220;28;20094;-76
2021/06/17 06:42:52;;;;;;;12.38;6.07;;;23.60;99.90;;;;;;5093215;28;20124;-77
2021/06/17 06:45:18;;;;;;;16.85;6.63;;;23.70;99.90;;;;;;5085808;28;20013;-77
2021/06/17 06:47:44;;;;;;;9.75;6.40;;;23.70;99.90;;;;;;5073965;28;20415;-76
2021/06/17 06:50:10;;;;;;;13.13;5.72;;;23.70;99.90;;;;;;5081061;28;20112;-77
2021/06/17 06:52:36;;;;;;;8.57;6.32;;;23.60;99.90;;;;;;5095744;28;20392;-77
2021/06/17 06:55:06;;;;;;;18.83;6.60;;;23.70;99.90;;;;;;5096561;28;20024;-76
2021/06/17 06:57:31;;;;;;;8.15;5.72;;;24.00;99.90;;;;;;5097538;28;20024;-76
2021/06/17 06:59:57;;;;;;;11.88;6.10;;;24.40;99.90;;;;;;5089249;28;20078;-76
2021/06/17 07:02:23;;;;;;;13.05;6.90;;;24.60;99.90;;;;;;5080879;28;20021;-77
2021/06/17 07:04:48;;;;;;;16.77;6.80;;;24.60;99.90;;;;;;5072512;28;20017;-76
2021/06/17 07:07:14;;;;;;;14.45;6.68;;;24.80;99.90;;;;;;5090448;28;20057;-76
2021/06/17 07:09:40;;;;;;;20.60;7.20;;;24.90;99.90;;;;;;5091873;28;20404;-77
2021/06/17 07:12:06;;;;;;;13.65;7.22;;;24.90;99.90;;;;;;5074531;28;20052;-76
2021/06/17 07:14:33;;;;;;;11.13;6.95;;;24.80;99.90;;;;;;5076165;28;20020;-76
2021/06/17 07:16:58;;;;;;;9.75;6.47;;;24.70;99.90;;;;;;5089128;28;20020;-76
2021/06/17 07:19:24;;;;;;;16.95;6.63;;;25.00;99.90;;;;;;5087187;28;20020;-76
2021/06/17 07:21:49;;;;;;;9.70;6.60;;;25.20;99.90;;;;;;5088599;28;20110;-77
2021/06/17 07:24:15;;;;;;;12.68;6.78;;;25.60;99.90;;;;;;5096224;28;20034;-76
2021/06/17 07:26:41;;;;;;;13.43;6.30;;;25.90;99.90;;;;;;5087439;28;20149;-76
2021/06/17 07:29:07;;;;;;;10.07;6.70;;;26.10;99.90;;;;;;5088444;28;20022;-76
2021/06/17 07:31:33;;;;;;;15.38;6.25;;;26.40;99.90;;;;;;5087960;28;20028;-76
2021/06/17 07:33:59;;;;;;;9.68;6.22;;;26.60;99.90;;;;;;5088473;28;20024;-76
2021/06/17 07:36:25;;;;;;;15.98;5.75;;;26.60;99.90;;;;;;5088294;28;20039;-76
2021/06/17 07:38:50;;;;;;;13.80;6.72;;;27.00;99.90;;;;;;5088268;28;20035;-76
2021/06/17 07:41:16;;;;;;;17.85;6.78;;;27.10;99.90;;;;;;5087904;28;20456;-77
2021/06/17 07:43:42;;;;;;;13.00;6.88;;;27.20;99.90;;;;;;5088011;28;20027;-76
2021/06/17 07:46:08;;;;;;;11.65;5.97;;;27.20;99.90;;;;;;5087147;28;20103;-77
2021/06/17 07:48:36;;;;;;;18.90;6.40;;;27.20;99.90;;;;;;5087343;28;20085;-77
2021/06/17 07:51:01;;;;;;;15.52;6.30;;;27.50;99.90;;;;;;5091116;28;20016;-77
2021/06/17 07:53:27;;;;;;;9.35;5.32;;;27.60;99.90;;;;;;5092311;28;20035;-77
2021/06/17 07:55:52;;;;;;;11.40;5.43;;;27.80;99.90;;;;;;5092146;28;20021;-77
2021/06/17 07:58:18;;;;;;;9.48;6.28;;;27.80;99.90;;;;;;5092340;28;20500;-76
2021/06/17 08:00:44;;;;;;;13.18;6.15;;;27.80;99.90;;;;;;5092204;28;20381;-77
2021/06/17 08:03:09;;;;;;;12.35;6.55;;;27.80;99.90;;;;;;5092276;28;20028;-76
2021/06/17 08:05:35;;;;;;;13.77;6.45;;;27.90;99.90;;;;;;5090704;28;20479;-77
2021/06/17 08:08:02;;;;;;;14.70;6.78;;;27.80;99.90;;;;;;5092371;28;20024;-77
2021/06/17 08:10:27;;;;;;;13.15;6.32;;;27.80;99.90;;;;;;5092094;28;20028;-76
2021/06/17 08:12:53;;;;;;;11.93;6.00;;;27.80;99.90;;;;;;5092057;28;20499;-76
2021/06/17 08:15:19;;;;;;;12.30;5.13;;;27.90;99.90;;;;;;5091904;28;20564;-76
2021/06/17 08:17:45;;;;;;;15.40;6.30;;;28.00;99.90;;;;;;5092135;28;20063;-77
2021/06/17 08:20:12;;;;;;;13.98;5.65;;;28.10;99.90;;;;;;5091935;28;20492;-76
2021/06/17 08:22:39;;;;;;;8.07;5.43;;;28.20;99.90;;;;;;5090715;28;20031;-77
2021/06/17 08:25:07;;;;;;;9.93;5.70;;;28.30;99.90;;;;;;5091718;28;20469;-76
2021/06/17 08:27:34;;;;;;;10.80;6.25;;;28.70;99.90;;;;;;5091957;28;20740;-77
2021/06/17 08:30:00;;;;;;;8.55;5.40;;;28.90;99.90;;;;;;5091913;28;20383;-77
2021/06/17 08:32:26;;;;;;;11.70;5.10;;;29.10;99.90;;;;;;5091840;28;20032;-76
2021/06/17 08:34:51;;;;;;;8.52;5.55;;;29.20;99.90;;;;;;5091665;28;20024;-77
2021/06/17 08:37:17;;;;;;;16.65;5.93;;;29.40;99.90;;;;;;5091491;28;20035;-77
2021/06/17 08:39:42;;;;;;;8.25;4.88;;;29.30;99.90;;;;;;5090545;28;20024;-77
2021/06/17 08:42:08;;;;;;;14.20;4.80;;;29.40;99.90;;;;;;5090481;28;20476;-76
2021/06/17 08:44:34;;;;;;;11.65;5.75;;;29.60;99.90;;;;;;5091584;28;20032;-76
2021/06/17 08:46:59;;;;;;;9.95;4.88;;;29.70;99.90;;;;;;5091685;28;20093;-76
2021/06/17 08:49:27;;;;;;;11.73;5.57;;;29.90;99.90;;;;;;5091814;28;20032;-77
2021/06/17 08:51:57;;;;;;;9.90;4.75;;;30.10;99.90;;;;;;5092044;28;20023;-77
2021/06/17 08:54:24;;;;;;;9.00;4.50;;;30.40;99.90;;;;;;5085435;28;20028;-77
2021/06/17 08:56:50;;;;;;;10.75;4.75;;;30.70;99.90;;;;;;5070234;28;20519;-76
2021/06/17 08:59:17;;;;;;;8.05;4.85;;;30.50;99.90;;;;;;5098772;28;20023;-77
2021/06/17 09:01:57;;;;;;;9.38;5.38;;;30.60;99.90;;;;;;5091154;28;20506;-77
2021/06/17 09:04:26;;;;;;;15.77;5.22;;;30.60;99.90;;;;;;5091579;28;20512;-77
2021/06/17 09:07:13;;;;;;;8.75;4.70;;;30.60;99.90;;;;;;5091683;28;20107;-77
2021/06/17 09:09:38;;;;;;;11.02;5.32;;;30.80;99.90;;;;;;5091455;28;20024;-77
2021/06/17 09:12:05;;;;;;;12.88;5.07;;;31.20;99.90;;;;;;5091546;28;20028;-77
2021/06/17 09:14:31;;;;;;;16.48;5.85;;;31.20;99.90;;;;;;5091308;28;20016;-77
2021/06/17 09:17:09;;;;;;;19.67;5.70;;;31.30;99.90;;;;;;5090243;28;20035;-77
2021/06/17 09:19:38;;;;;;;9.95;5.63;;;31.40;99.90;;;;;;5091296;28;20557;-77
2021/06/17 09:22:04;;;;;;;7.00;4.78;;;31.50;99.90;;;;;;5091366;28;20020;-77
2021/06/17 09:24:35;;;;;;;9.98;5.40;;;31.50;99.90;;;;;;5091351;28;20047;-77
2021/06/17 09:27:29;;;;;;;7.53;4.63;;;31.30;99.90;;;;;;5090043;28;20480;-77
2021/06/17 09:30:15;;;;;;;12.98;4.60;;;31.60;99.90;;;;;;5091351;28;20024;-77
2021/06/17 09:32:51;;;;;;;10.80;5.03;;;31.80;99.90;;;;;;5091337;28;20020;-77
2021/06/17 09:35:18;;;;;;;14.32;4.75;;;32.20;99.90;;;;;;5091119;28;20493;-77
2021/06/17 09:37:43;;;;;;;11.00;4.53;;;32.30;99.90;;;;;;5091314;28;20115;-77
2021/06/17 09:40:33;;;;;;;13.02;4.90;;;32.40;99.90;;;;;;5091212;28;20076;-77
2021/06/17 09:43:25;;;;;;;9.93;4.35;;;32.70;99.90;;;;;;5091119;28;20024;-76
2021/06/17 09:45:56;;;;;;;7.70;4.97;;;32.80;99.90;;;;;;5091133;28;20027;-76
2021/06/17 09:48:32;;;;;;;7.80;4.07;;;33.00;99.90;;;;;;5092920;28;20016;-77
2021/06/17 09:50:58;;;;;;;8.60;4.63;;;33.20;99.90;;;;;;5095277;28;20012;-76
2021/06/17 09:53:26;;;;;;;11.13;4.10;;;33.30;99.90;;;;;;5094859;28;20036;-77
2021/06/17 09:55:53;;;;;;;14.68;4.00;;;33.20;99.90;;;;;;5077333;28;20097;-77
2021/06/17 09:58:38;;;;;;;9.65;4.38;;;33.50;99.90;;;;;;5074554;28;20035;-77
2021/06/17 10:01:06;;;;;;;7.82;4.05;;;33.60;99.90;;;;;;5074147;28;20122;-76
2021/06/17 10:03:32;;;;;;;6.53;3.88;;;33.50;99.00;;;;;;5072901;28;20031;-76
2021/06/17 10:05:58;;;;;;;8.65;4.45;;;33.50;99.70;;;;;;5074070;28;20024;-77
2021/06/17 10:08:24;;;;;;;8.20;4.15;;;33.60;98.80;;;;;;5074213;28;20115;-77
2021/06/17 10:10:50;;;;;;;8.98;4.13;;;33.40;97.60;;;;;;5073967;28;20523;-77
2021/06/17 10:13:26;;;;;;;7.90;4.22;;;33.20;97.50;;;;;;5074176;28;20033;-76
2021/06/17 10:15:51;;;;;;;5.90;3.72;;;33.00;98.90;;;;;;5073900;28;20028;-77
2021/06/17 10:18:18;;;;;;;13.90;4.15;;;33.20;99.90;;;;;;5074119;28;20032;-77
2021/06/17 10:20:44;;;;;;;7.60;3.70;;;33.60;99.90;;;;;;5073866;28;20020;-77
2021/06/17 10:23:15;;;;;;;9.98;3.75;;;33.90;99.40;;;;;;5073897;28;20491;-77
2021/06/17 10:25:43;;;;;;;10.65;4.13;;;33.90;99.40;;;;;;5073770;28;20098;-77
2021/06/17 10:28:09;;;;;;;19.45;4.35;;;33.90;96.80;;;;;;5072598;28;20032;-77
2021/06/17 10:30:46;;;;;;;9.43;4.38;;;34.00;96.90;;;;;;5073585;28;20049;-77
2021/06/17 10:33:29;;;;;;;6.32;4.03;;;34.00;94.40;;;;;;5072625;28;20032;-77
2021/06/17 10:36:37;;;;;;;;;;;34.00;93.00;;;;;;5072833;28;20047;-76
2021/06/17 10:39:09;;;;;;;5.63;3.60;;;34.00;95.40;;;;;;5062757;28;19920;-77
2021/06/17 10:41:53;;;;;;;6.40;4.05;;;34.10;92.90;;;;;;5072353;28;20498;-77
2021/06/17 10:44:37;;;;;;;14.50;4.15;;;34.30;94.70;;;;;;5072086;28;20055;-77
2021/06/17 10:47:05;;;;;;;10.57;3.92;;;34.70;92.10;;;;;;5072088;28;20538;-77
2021/06/17 10:49:57;;;;;;;6.85;3.67;;;34.90;92.10;;;;;;5073466;28;20052;-77
2021/06/17 10:52:26;;;;;;;6.85;3.72;;;34.70;93.70;;;;;;5068496;28;20037;-77
2021/06/17 10:54:54;;;;;;;6.40;3.60;;;34.60;92.10;;;;;;5073219;28;20052;-77
2021/06/17 10:57:42;;;;;;;5.22;3.05;;;34.50;91.00;;;;;;5072403;28;20400;-77
2021/06/17 11:00:27;;;;;;;11.00;3.30;;;34.40;83.20;;;;;;5072960;28;20021;-77
2021/06/17 11:02:56;;;;;;;10.23;4.25;;;34.30;85.90;;;;;;5073149;28;20392;-76
2021/06/17 11:05:34;;;;;;;9.30;3.53;;;34.60;83.90;;;;;;5073048;28;20469;-77
2021/06/17 11:08:27;;;;;;;9.50;3.92;;;34.90;85.80;;;;;;5072871;28;20055;-77
2021/06/17 11:11:04;;;;;;;3.85;3.17;;;35.10;87.70;;;;;;5071887;28;20059;-77
2021/06/17 11:13:41;;;;;;;8.30;3.60;;;35.00;80.30;;;;;;5072991;28;20033;-77
2021/06/17 11:16:30;;;;;;;4.47;3.92;;;34.80;77.10;;;;;;5071689;28;20024;-77
2021/06/17 11:18:59;;;;;;;9.88;3.38;;;34.80;79.70;;;;;;5071587;28;20048;-77
2021/06/17 11:21:25;;;;;;;7.43;3.20;;;34.70;76.50;;;;;;5072808;28;20074;-77
2021/06/17 11:24:13;;;;;;;13.95;3.88;;;34.60;79.40;;;;;;5071325;28;20021;-77
2021/06/17 11:26:41;;;;;;;8.60;4.20;;;34.90;82.80;;;;;;5064442;28;20498;-77
2021/06/17 11:29:10;;;;;;;8.02;3.67;;;34.90;78.20;;;;;;5072557;28;20541;-77
2021/06/17 11:31:54;;;;;;;4.97;3.22;;;35.20;78.70;;;;;;5072552;28;20123;-77
2021/06/17 11:34:46;;;;;;;4.30;3.40;;;35.10;74.90;;;;;;5072476;28;20559;-77
2021/06/17 11:37:15;;;;;;;9.75;3.40;;;35.10;77.60;;;;;;5071165;28;20044;-77
2021/06/17 11:39:41;;;;;;;7.63;3.65;;;35.30;83.50;;;;;;5072341;28;20020;-77
2021/06/17 11:42:15;;;;;;;5.32;3.08;;;35.70;75.90;;;;;;5072340;28;20028;-77
2021/06/17 11:44:41;;;;;;;10.10;3.38;;;36.10;76.80;;;;;;5072199;28;20028;-77
2021/06/17 11:47:13;;;;;;;8.27;3.30;;;35.90;76.30;;;;;;5072389;28;20033;-77
2021/06/17 11:49:40;;;;;;;9.70;3.72;;;35.80;67.60;;;;;;5072149;28;20032;-78
2021/06/17 11:52:19;;;;;;;10.55;3.22;;;35.70;73.30;;;;;;5072288;28;20029;-77
2021/06/17 11:54:46;;;;;;;15.45;3.65;;;35.80;73.40;;;;;;5079826;28;20509;-77
2021/06/17 11:57:13;;;;;;;6.90;3.33;;;35.70;68.30;;;;;;5092521;28;20024;-77
2021/06/17 11:59:49;;;;;;;7.57;3.33;;;35.90;70.80;;;;;;5092257;28;20020;-77
2021/06/17 12:02:18;;;;;;;6.75;3.67;;;35.90;68.20;;;;;;5102365;28;20024;-77
2021/06/17 12:05:07;;;;;;;7.20;3.50;;;36.20;72.10;;;;;;5091100;28;20480;-77
2021/06/17 12:07:39;;;;;;;7.10;3.63;;;36.20;67.50;;;;;;5091437;28;20031;-77
2021/06/17 12:10:27;;;;;;;5.65;3.42;;;36.40;67.70;;;;;;5091765;28;20106;-77
2021/06/17 12:12:57;;;;;;;5.65;3.38;;;36.50;67.40;;;;;;5089254;28;20652;-77
2021/06/17 12:15:25;;;;;;;6.38;3.90;;;36.50;65.40;;;;;;5092004;28;20028;-77
2021/06/17 12:17:56;;;;;;;5.72;3.42;;;36.60;66.90;;;;;;5092356;28;20048;-77
2021/06/17 12:20:23;;;;;;;5.05;3.42;;;36.60;65.40;;;;;;5092133;28;20062;-77
2021/06/17 12:23:05;;;;;;;9.07;3.67;;;36.50;66.50;;;;;;5091835;28;20069;-78
2021/06/17 12:25:58;;;;;;;5.30;3.40;;;36.50;63.40;;;;;;5090556;28;20070;-77
2021/06/17 12:28:25;;;;;;;5.40;3.72;;;37.00;66.90;;;;;;5088907;28;20059;-77
2021/06/17 12:30:51;;;;;;;10.38;3.25;;;37.30;62.00;;;;;;5090601;28;20488;-76
2021/06/17 12:33:24;;;;;;;8.68;2.90;;;37.40;63.40;;;;;;5091806;28;20038;-77
2021/06/17 12:36:08;;;;;;;;;;;37.50;63.00;;;;;;5092150;28;20031;-77
2021/06/17 12:38:38;;;;;;;6.68;3.40;;;37.90;58.70;;;;;;5091887;28;19908;-77
2021/06/17 12:41:17;;;;;;;7.63;3.30;;;37.80;57.70;;;;;;5091824;28;20027;-78
2021/06/17 12:43:43;;;;;;;7.22;3.22;;;38.00;60.10;;;;;;5079949;28;20503;-77
2021/06/17 12:46:09;;;;;;;11.13;3.35;;;38.30;64.20;;;;;;5071227;28;20028;-78
2021/06/17 12:54:08;;;;;;;8.27;3.20;;;37.90;57.40;;;;;;5086735;28;20039;-78
2021/06/17 12:56:35;;;;;;;7.63;3.58;;;38.10;60.70;;;;;;5083030;28;20732;-78
2021/06/17 12:59:01;;;;;;;5.45;2.80;;;38.50;56.80;;;;;;5087527;28;20340;-78
2021/06/17 13:01:45;;;;;;;6.13;3.13;;;38.10;57.10;;;;;;5088217;28;20028;-77